sensor_id;sensor_type;location;lat;lon;timestamp;temperature;humidity
69281;SHT31;56392;51.082;17.080;2023-01-10T00:03:31;6.61;83.55
69281;SHT31;56392;51.082;17.080;2023-01-10T00:08:54;6.63;83.63
69281;SHT31;56392;51.082;17.080;2023-01-10T00:14:18;6.63;83.56
69281;SHT31;56392;51.082;17.080;2023-01-10T00:19:43;6.60;83.37
69281;SHT31;56392;51.082;17.080;2023-01-10T00:25:06;6.63;83.43
69281;SHT31;56392;51.082;17.080;2023-01-10T00:30:29;6.57;83.62
69281;SHT31;56392;51.082;17.080;2023-01-10T00:35:55;6.56;83.45
69281;SHT31;56392;51.082;17.080;2023-01-10T00:41:18;6.54;83.36
69281;SHT31;56392;51.082;17.080;2023-01-10T00:46:59;6.63;83.00
69281;SHT31;56392;51.082;17.080;2023-01-10T00:52:24;6.66;83.07
69281;SHT31;56392;51.082;17.080;2023-01-10T00:57:47;6.66;83.19
69281;SHT31;56392;51.082;17.080;2023-01-10T01:03:10;6.63;83.07
69281;SHT31;56392;51.082;17.080;2023-01-10T01:08:35;6.60;83.13
69281;SHT31;56392;51.082;17.080;2023-01-10T01:13:58;6.60;83.12
69281;SHT31;56392;51.082;17.080;2023-01-10T01:19:21;6.64;82.96
69281;SHT31;56392;51.082;17.080;2023-01-10T01:24:46;6.60;82.84
69281;SHT31;56392;51.082;17.080;2023-01-10T01:30:10;6.53;83.39
69281;SHT31;56392;51.082;17.080;2023-01-10T01:35:33;6.53;83.43
69281;SHT31;56392;51.082;17.080;2023-01-10T01:40:58;6.47;83.47
69281;SHT31;56392;51.082;17.080;2023-01-10T01:46:22;6.43;83.10
69281;SHT31;56392;51.082;17.080;2023-01-10T01:51:46;6.51;82.66
69281;SHT31;56392;51.082;17.080;2023-01-10T01:57:12;6.43;81.73
69281;SHT31;56392;51.082;17.080;2023-01-10T02:02:38;6.50;81.48
69281;SHT31;56392;51.082;17.080;2023-01-10T02:08:05;6.57;81.28
69281;SHT31;56392;51.082;17.080;2023-01-10T02:13:30;6.51;80.55
69281;SHT31;56392;51.082;17.080;2023-01-10T02:18:54;6.57;80.21
69281;SHT31;56392;51.082;17.080;2023-01-10T02:24:49;6.63;79.94
69281;SHT31;56392;51.082;17.080;2023-01-10T02:30:36;6.73;80.15
69281;SHT31;56392;51.082;17.080;2023-01-10T02:36:19;6.67;79.94
69281;SHT31;56392;51.082;17.080;2023-01-10T02:41:49;6.66;79.77
69281;SHT31;56392;51.082;17.080;2023-01-10T02:47:13;6.64;79.49
69281;SHT31;56392;51.082;17.080;2023-01-10T02:52:38;6.61;79.60
69281;SHT31;56392;51.082;17.080;2023-01-10T02:58:08;6.56;79.39
69281;SHT31;56392;51.082;17.080;2023-01-10T03:03:40;6.60;79.69
69281;SHT31;56392;51.082;17.080;2023-01-10T03:09:15;6.61;79.57
69281;SHT31;56392;51.082;17.080;2023-01-10T03:14:40;6.69;79.69
69281;SHT31;56392;51.082;17.080;2023-01-10T03:20:06;6.58;79.71
69281;SHT31;56392;51.082;17.080;2023-01-10T03:25:33;6.63;79.66
69281;SHT31;56392;51.082;17.080;2023-01-10T03:31:00;6.67;79.80
69281;SHT31;56392;51.082;17.080;2023-01-10T03:36:29;6.71;79.50
69281;SHT31;56392;51.082;17.080;2023-01-10T03:42:04;6.77;79.64
69281;SHT31;56392;51.082;17.080;2023-01-10T03:47:31;6.76;79.62
69281;SHT31;56392;51.082;17.080;2023-01-10T03:52:56;6.79;79.45
69281;SHT31;56392;51.082;17.080;2023-01-10T03:58:21;6.76;79.38
69281;SHT31;56392;51.082;17.080;2023-01-10T04:03:44;6.74;79.58
69281;SHT31;56392;51.082;17.080;2023-01-10T04:09:07;6.79;79.58
69281;SHT31;56392;51.082;17.080;2023-01-10T04:14:32;6.74;79.96
69281;SHT31;56392;51.082;17.080;2023-01-10T04:19:55;6.70;79.56
69281;SHT31;56392;51.082;17.080;2023-01-10T04:25:18;6.66;79.62
69281;SHT31;56392;51.082;17.080;2023-01-10T04:30:42;6.67;79.52
69281;SHT31;56392;51.082;17.080;2023-01-10T04:36:06;6.67;79.71
69281;SHT31;56392;51.082;17.080;2023-01-10T04:41:29;6.66;79.57
69281;SHT31;56392;51.082;17.080;2023-01-10T04:46:53;6.64;79.64
69281;SHT31;56392;51.082;17.080;2023-01-10T04:52:16;6.63;79.70
69281;SHT31;56392;51.082;17.080;2023-01-10T04:57:39;6.60;79.84
69281;SHT31;56392;51.082;17.080;2023-01-10T05:03:04;6.60;79.81
69281;SHT31;56392;51.082;17.080;2023-01-10T05:08:27;6.58;79.98
69281;SHT31;56392;51.082;17.080;2023-01-10T05:13:51;6.61;79.88
69281;SHT31;56392;51.082;17.080;2023-01-10T05:19:15;6.64;79.96
69281;SHT31;56392;51.082;17.080;2023-01-10T05:24:38;6.60;79.92
69281;SHT31;56392;51.082;17.080;2023-01-10T05:30:03;6.63;80.01
69281;SHT31;56392;51.082;17.080;2023-01-10T05:35:28;6.56;79.87
69281;SHT31;56392;51.082;17.080;2023-01-10T05:40:53;6.54;80.03
69281;SHT31;56392;51.082;17.080;2023-01-10T05:46:17;6.56;80.13
69281;SHT31;56392;51.082;17.080;2023-01-10T05:51:42;6.50;80.23
69281;SHT31;56392;51.082;17.080;2023-01-10T05:57:05;6.56;80.35
69281;SHT31;56392;51.082;17.080;2023-01-10T06:02:30;6.58;80.19
69281;SHT31;56392;51.082;17.080;2023-01-10T06:07:55;6.56;79.92
69281;SHT31;56392;51.082;17.080;2023-01-10T06:13:18;6.50;80.47
69281;SHT31;56392;51.082;17.080;2023-01-10T06:18:41;6.57;80.25
69281;SHT31;56392;51.082;17.080;2023-01-10T06:24:06;6.40;80.49
69281;SHT31;56392;51.082;17.080;2023-01-10T06:29:30;6.43;80.50
69281;SHT31;56392;51.082;17.080;2023-01-10T06:34:54;6.49;80.64
69281;SHT31;56392;51.082;17.080;2023-01-10T06:40:19;6.46;80.64
69281;SHT31;56392;51.082;17.080;2023-01-10T06:45:42;6.44;80.83
69281;SHT31;56392;51.082;17.080;2023-01-10T06:51:05;6.51;80.59
69281;SHT31;56392;51.082;17.080;2023-01-10T06:56:29;6.47;80.67
69281;SHT31;56392;51.082;17.080;2023-01-10T07:01:53;6.51;80.83
69281;SHT31;56392;51.082;17.080;2023-01-10T07:07:16;6.50;80.67
69281;SHT31;56392;51.082;17.080;2023-01-10T07:12:40;6.51;80.62
69281;SHT31;56392;51.082;17.080;2023-01-10T07:18:03;6.56;80.68
69281;SHT31;56392;51.082;17.080;2023-01-10T07:23:27;6.46;80.82
69281;SHT31;56392;51.082;17.080;2023-01-10T07:28:53;6.42;81.15
69281;SHT31;56392;51.082;17.080;2023-01-10T07:34:16;6.51;81.14
69281;SHT31;56392;51.082;17.080;2023-01-10T07:39:39;6.47;81.05
69281;SHT31;56392;51.082;17.080;2023-01-10T07:45:05;6.47;81.24
69281;SHT31;56392;51.082;17.080;2023-01-10T07:50:32;6.51;81.31
69281;SHT31;56392;51.082;17.080;2023-01-10T07:55:58;6.56;81.20
69281;SHT31;56392;51.082;17.080;2023-01-10T08:01:23;6.54;81.40
69281;SHT31;56392;51.082;17.080;2023-01-10T08:06:46;6.51;81.49
69281;SHT31;56392;51.082;17.080;2023-01-10T08:12:10;6.54;81.77
69281;SHT31;56392;51.082;17.080;2023-01-10T08:17:35;6.57;82.01
69281;SHT31;56392;51.082;17.080;2023-01-10T08:22:58;6.54;81.76
69281;SHT31;56392;51.082;17.080;2023-01-10T08:28:21;6.63;81.55
69281;SHT31;56392;51.082;17.080;2023-01-10T08:33:46;6.69;81.33
69281;SHT31;56392;51.082;17.080;2023-01-10T08:39:10;6.69;81.14
69281;SHT31;56392;51.082;17.080;2023-01-10T08:44:34;6.67;81.11
69281;SHT31;56392;51.082;17.080;2023-01-10T08:49:59;6.66;81.21
69281;SHT31;56392;51.082;17.080;2023-01-10T08:55:22;6.63;80.93
69281;SHT31;56392;51.082;17.080;2023-01-10T09:00:45;6.58;81.25
69281;SHT31;56392;51.082;17.080;2023-01-10T09:06:11;6.67;81.01
69281;SHT31;56392;51.082;17.080;2023-01-10T09:11:34;6.64;80.97
69281;SHT31;56392;51.082;17.080;2023-01-10T09:16:57;6.71;81.08
69281;SHT31;56392;51.082;17.080;2023-01-10T09:22:22;6.73;80.92
69281;SHT31;56392;51.082;17.080;2023-01-10T09:27:45;6.84;80.40
69281;SHT31;56392;51.082;17.080;2023-01-10T09:33:09;6.88;80.35
69281;SHT31;56392;51.082;17.080;2023-01-10T09:38:34;6.97;80.12
69281;SHT31;56392;51.082;17.080;2023-01-10T09:44:02;6.94;79.72
69281;SHT31;56392;51.082;17.080;2023-01-10T09:49:37;6.91;80.03
69281;SHT31;56392;51.082;17.080;2023-01-10T09:55:15;6.97;79.87
69281;SHT31;56392;51.082;17.080;2023-01-10T10:00:41;7.04;80.13
69281;SHT31;56392;51.082;17.080;2023-01-10T10:06:08;7.01;80.24
69281;SHT31;56392;51.082;17.080;2023-01-10T10:11:39;7.05;80.37
69281;SHT31;56392;51.082;17.080;2023-01-10T10:17:14;7.11;80.52
69281;SHT31;56392;51.082;17.080;2023-01-10T10:22:46;7.15;80.49
69281;SHT31;56392;51.082;17.080;2023-01-10T10:34:23;7.32;80.34
69281;SHT31;56392;51.082;17.080;2023-01-10T10:39:51;7.35;79.70
69281;SHT31;56392;51.082;17.080;2023-01-10T10:45:19;7.39;79.60
69281;SHT31;56392;51.082;17.080;2023-01-10T10:50:50;7.45;79.21
69281;SHT31;56392;51.082;17.080;2023-01-10T10:56:18;7.45;79.27
69281;SHT31;56392;51.082;17.080;2023-01-10T11:01:44;7.48;78.91
69281;SHT31;56392;51.082;17.080;2023-01-10T11:07:14;7.53;79.24
69281;SHT31;56392;51.082;17.080;2023-01-10T11:12:40;7.45;79.13
69281;SHT31;56392;51.082;17.080;2023-01-10T11:18:13;7.53;79.36
69281;SHT31;56392;51.082;17.080;2023-01-10T11:23:40;7.48;79.26
69281;SHT31;56392;51.082;17.080;2023-01-10T11:29:06;7.46;79.26
69281;SHT31;56392;51.082;17.080;2023-01-10T11:34:32;7.42;79.56
69281;SHT31;56392;51.082;17.080;2023-01-10T11:40:26;7.52;79.74
69281;SHT31;56392;51.082;17.080;2023-01-10T11:45:53;7.56;79.21
69281;SHT31;56392;51.082;17.080;2023-01-10T11:51:21;7.56;79.48
69281;SHT31;56392;51.082;17.080;2023-01-10T11:56:56;7.53;79.40
69281;SHT31;56392;51.082;17.080;2023-01-10T12:02:24;7.52;79.44
69281;SHT31;56392;51.082;17.080;2023-01-10T12:07:55;7.61;79.20
69281;SHT31;56392;51.082;17.080;2023-01-10T12:13:19;7.61;79.35
69281;SHT31;56392;51.082;17.080;2023-01-10T12:18:43;7.53;79.67
69281;SHT31;56392;51.082;17.080;2023-01-10T12:24:11;7.59;79.66
69281;SHT31;56392;51.082;17.080;2023-01-10T12:29:42;7.62;79.31
69281;SHT31;56392;51.082;17.080;2023-01-10T12:35:12;7.66;79.34
69281;SHT31;56392;51.082;17.080;2023-01-10T12:40:42;7.63;79.49
69281;SHT31;56392;51.082;17.080;2023-01-10T12:46:14;7.62;79.09
69281;SHT31;56392;51.082;17.080;2023-01-10T12:51:42;7.65;79.09
69281;SHT31;56392;51.082;17.080;2023-01-10T12:57:15;7.66;79.42
69281;SHT31;56392;51.082;17.080;2023-01-10T13:02:42;7.69;79.41
69281;SHT31;56392;51.082;17.080;2023-01-10T13:08:10;7.72;79.73
69281;SHT31;56392;51.082;17.080;2023-01-10T13:13:36;7.72;79.63
69281;SHT31;56392;51.082;17.080;2023-01-10T13:19:04;7.69;79.82
69281;SHT31;56392;51.082;17.080;2023-01-10T13:24:53;7.76;80.02
69281;SHT31;56392;51.082;17.080;2023-01-10T13:30:25;7.73;81.09
69281;SHT31;56392;51.082;17.080;2023-01-10T13:35:51;7.55;81.74
69281;SHT31;56392;51.082;17.080;2023-01-10T13:41:15;7.42;83.16
69281;SHT31;56392;51.082;17.080;2023-01-10T13:46:55;7.46;84.07
69281;SHT31;56392;51.082;17.080;2023-01-10T13:52:30;7.36;84.35
69281;SHT31;56392;51.082;17.080;2023-01-10T13:57:55;7.38;84.22
69281;SHT31;56392;51.082;17.080;2023-01-10T14:03:38;7.25;83.97
69281;SHT31;56392;51.082;17.080;2023-01-10T14:09:05;7.33;84.09
69281;SHT31;56392;51.082;17.080;2023-01-10T14:14:31;7.32;83.70
69281;SHT31;56392;51.082;17.080;2023-01-10T14:20:02;7.21;83.67
69281;SHT31;56392;51.082;17.080;2023-01-10T14:25:28;7.26;83.67
69281;SHT31;56392;51.082;17.080;2023-01-10T14:31:02;7.23;84.00
69281;SHT31;56392;51.082;17.080;2023-01-10T14:36:31;7.33;83.74
69281;SHT31;56392;51.082;17.080;2023-01-10T14:41:57;7.29;83.80
69281;SHT31;56392;51.082;17.080;2023-01-10T14:47:26;7.36;83.91
69281;SHT31;56392;51.082;17.080;2023-01-10T14:52:49;7.41;83.84
69281;SHT31;56392;51.082;17.080;2023-01-10T14:58:16;7.33;82.96
69281;SHT31;56392;51.082;17.080;2023-01-10T15:03:44;7.41;83.12
69281;SHT31;56392;51.082;17.080;2023-01-10T15:09:13;7.31;82.59
69281;SHT31;56392;51.082;17.080;2023-01-10T15:14:37;7.36;83.22
69281;SHT31;56392;51.082;17.080;2023-01-10T15:20:02;7.35;83.30
69281;SHT31;56392;51.082;17.080;2023-01-10T15:25:28;7.25;83.81
69281;SHT31;56392;51.082;17.080;2023-01-10T15:30:55;7.25;84.00
69281;SHT31;56392;51.082;17.080;2023-01-10T15:36:25;7.18;84.21
69281;SHT31;56392;51.082;17.080;2023-01-10T15:41:54;7.21;84.37
69281;SHT31;56392;51.082;17.080;2023-01-10T15:47:34;7.19;84.64
69281;SHT31;56392;51.082;17.080;2023-01-10T15:52:59;6.98;85.77
69281;SHT31;56392;51.082;17.080;2023-01-10T15:58:26;6.98;85.80
69281;SHT31;56392;51.082;17.080;2023-01-10T16:03:52;6.98;85.75
69281;SHT31;56392;51.082;17.080;2023-01-10T16:09:20;7.01;85.54
69281;SHT31;56392;51.082;17.080;2023-01-10T16:14:44;7.04;84.95
69281;SHT31;56392;51.082;17.080;2023-01-10T16:20:12;7.07;84.44
69281;SHT31;56392;51.082;17.080;2023-01-10T16:25:37;7.09;83.70
69281;SHT31;56392;51.082;17.080;2023-01-10T16:31:00;6.98;83.37
69281;SHT31;56392;51.082;17.080;2023-01-10T16:36:25;7.08;83.36
69281;SHT31;56392;51.082;17.080;2023-01-10T16:41:48;7.08;83.23
69281;SHT31;56392;51.082;17.080;2023-01-10T16:47:28;7.07;83.43
69281;SHT31;56392;51.082;17.080;2023-01-10T16:52:52;7.04;83.20
69281;SHT31;56392;51.082;17.080;2023-01-10T16:58:17;7.12;83.01
69281;SHT31;56392;51.082;17.080;2023-01-10T17:03:40;7.11;82.22
69281;SHT31;56392;51.082;17.080;2023-01-10T17:09:04;7.09;82.28
69281;SHT31;56392;51.082;17.080;2023-01-10T17:14:28;7.15;82.20
69281;SHT31;56392;51.082;17.080;2023-01-10T17:19:52;7.14;81.97
69281;SHT31;56392;51.082;17.080;2023-01-10T17:25:16;7.14;82.04
69281;SHT31;56392;51.082;17.080;2023-01-10T17:30:39;7.14;82.08
69281;SHT31;56392;51.082;17.080;2023-01-10T17:36:03;7.09;82.15
69281;SHT31;56392;51.082;17.080;2023-01-10T17:41:27;7.07;82.16
69281;SHT31;56392;51.082;17.080;2023-01-10T17:46:50;6.92;81.63
69281;SHT31;56392;51.082;17.080;2023-01-10T17:52:15;6.88;81.59
69281;SHT31;56392;51.082;17.080;2023-01-10T17:57:40;6.94;81.62
69281;SHT31;56392;51.082;17.080;2023-01-10T18:03:03;6.91;81.63
69281;SHT31;56392;51.082;17.080;2023-01-10T18:08:26;6.94;81.20
69281;SHT31;56392;51.082;17.080;2023-01-10T18:13:50;6.97;81.52
69281;SHT31;56392;51.082;17.080;2023-01-10T18:19:13;6.87;81.02
69281;SHT31;56392;51.082;17.080;2023-01-10T18:24:36;6.76;80.82
69281;SHT31;56392;51.082;17.080;2023-01-10T18:30:01;6.74;80.63
69281;SHT31;56392;51.082;17.080;2023-01-10T18:35:24;6.80;80.85
69281;SHT31;56392;51.082;17.080;2023-01-10T18:40:50;6.71;80.90
69281;SHT31;56392;51.082;17.080;2023-01-10T18:46:16;6.70;80.87
69281;SHT31;56392;51.082;17.080;2023-01-10T18:51:39;6.80;81.06
69281;SHT31;56392;51.082;17.080;2023-01-10T18:57:02;6.83;81.12
69281;SHT31;56392;51.082;17.080;2023-01-10T19:02:27;6.84;81.09
69281;SHT31;56392;51.082;17.080;2023-01-10T19:07:50;6.85;81.13
69281;SHT31;56392;51.082;17.080;2023-01-10T19:13:13;6.85;81.32
69281;SHT31;56392;51.082;17.080;2023-01-10T19:18:38;6.79;81.21
69281;SHT31;56392;51.082;17.080;2023-01-10T19:24:03;6.67;80.35
69281;SHT31;56392;51.082;17.080;2023-01-10T19:29:26;6.74;80.85
69281;SHT31;56392;51.082;17.080;2023-01-10T19:34:52;6.79;80.63
69281;SHT31;56392;51.082;17.080;2023-01-10T19:40:15;6.74;80.84
69281;SHT31;56392;51.082;17.080;2023-01-10T19:45:39;6.76;80.83
69281;SHT31;56392;51.082;17.080;2023-01-10T19:51:09;6.71;80.77
69281;SHT31;56392;51.082;17.080;2023-01-10T19:56:33;6.77;81.10
69281;SHT31;56392;51.082;17.080;2023-01-10T20:01:57;6.76;80.79
69281;SHT31;56392;51.082;17.080;2023-01-10T20:07:23;6.80;80.68
69281;SHT31;56392;51.082;17.080;2023-01-10T20:12:46;6.74;81.06
69281;SHT31;56392;51.082;17.080;2023-01-10T20:18:09;6.76;81.32
69281;SHT31;56392;51.082;17.080;2023-01-10T20:23:36;6.70;81.80
69281;SHT31;56392;51.082;17.080;2023-01-10T20:29:00;6.79;81.82
69281;SHT31;56392;51.082;17.080;2023-01-10T20:34:23;6.81;81.52
69281;SHT31;56392;51.082;17.080;2023-01-10T20:39:48;6.85;81.13
69281;SHT31;56392;51.082;17.080;2023-01-10T20:45:11;6.85;81.10
69281;SHT31;56392;51.082;17.080;2023-01-10T20:50:34;6.79;81.27
69281;SHT31;56392;51.082;17.080;2023-01-10T20:56:02;6.77;81.26
69281;SHT31;56392;51.082;17.080;2023-01-10T21:01:26;6.76;81.58
69281;SHT31;56392;51.082;17.080;2023-01-10T21:06:50;6.79;80.96
69281;SHT31;56392;51.082;17.080;2023-01-10T21:12:15;6.81;80.71
69281;SHT31;56392;51.082;17.080;2023-01-10T21:17:38;6.80;81.05
69281;SHT31;56392;51.082;17.080;2023-01-10T21:23:03;6.77;81.31
69281;SHT31;56392;51.082;17.080;2023-01-10T21:28:31;6.80;80.82
69281;SHT31;56392;51.082;17.080;2023-01-10T21:33:55;6.77;81.10
69281;SHT31;56392;51.082;17.080;2023-01-10T21:39:18;6.73;81.38
69281;SHT31;56392;51.082;17.080;2023-01-10T21:44:42;6.76;81.31
69281;SHT31;56392;51.082;17.080;2023-01-10T21:50:08;6.70;81.53
69281;SHT31;56392;51.082;17.080;2023-01-10T21:55:33;6.69;81.89
69281;SHT31;56392;51.082;17.080;2023-01-10T22:00:58;6.60;82.11
69281;SHT31;56392;51.082;17.080;2023-01-10T22:06:22;6.64;81.82
69281;SHT31;56392;51.082;17.080;2023-01-10T22:11:45;6.57;81.87
69281;SHT31;56392;51.082;17.080;2023-01-10T22:17:10;6.54;82.44
69281;SHT31;56392;51.082;17.080;2023-01-10T22:22:33;6.54;82.77
69281;SHT31;56392;51.082;17.080;2023-01-10T22:27:56;6.60;82.42
69281;SHT31;56392;51.082;17.080;2023-01-10T22:33:21;6.54;81.72
69281;SHT31;56392;51.082;17.080;2023-01-10T22:38:45;6.51;82.21
69281;SHT31;56392;51.082;17.080;2023-01-10T22:44:16;6.44;82.21
69281;SHT31;56392;51.082;17.080;2023-01-10T22:49:41;6.43;82.22
69281;SHT31;56392;51.082;17.080;2023-01-10T22:55:05;6.50;82.36
69281;SHT31;56392;51.082;17.080;2023-01-10T23:00:28;6.44;82.29
69281;SHT31;56392;51.082;17.080;2023-01-10T23:05:55;6.50;82.33
69281;SHT31;56392;51.082;17.080;2023-01-10T23:11:19;6.43;82.46
69281;SHT31;56392;51.082;17.080;2023-01-10T23:16:42;6.46;82.06
69281;SHT31;56392;51.082;17.080;2023-01-10T23:22:07;6.39;82.26
69281;SHT31;56392;51.082;17.080;2023-01-10T23:27:30;6.39;82.09
69281;SHT31;56392;51.082;17.080;2023-01-10T23:32:53;6.42;81.99
69281;SHT31;56392;51.082;17.080;2023-01-10T23:38:18;6.36;81.74
69281;SHT31;56392;51.082;17.080;2023-01-10T23:43:41;6.39;80.96
69281;SHT31;56392;51.082;17.080;2023-01-10T23:49:04;6.37;80.95
69281;SHT31;56392;51.082;17.080;2023-01-10T23:54:30;6.34;80.88
69281;SHT31;56392;51.082;17.080;2023-01-10T23:59:53;6.22;81.13
